Bei Facebook empfehlenBei Twitter postenGoogle plusPinterest

Das Wetter im Erzgebirge am 16.02.2017

Wetter und Klima am 16.02.2017 Holzhau im Erzgebirge (630m ü.NN)
Letzte gemessene Temperatur und Uhrzeit der Messung23:45:00 Uhr1.80 °C
Temperatur (Maximum / Höchstwert) und Uhrzeit der Messung14:00:00 Uhr12.50 °C
Temperatur (Minimum / Tiefstwert) und Uhrzeit der Messung07:00:00-5.30 °C
Errechneter Absolutwert der Temperaturschwankungen zwischen Tmin und Tmax des Tages17.80 K
Errechnete Tagesmitteltemperatur2.08646 °C
Gesamt - Niederschlag des Tages (in flüssiger Form)0.00 Liter / m²
Luftdruck (Maximum / Höchstwert) und Zeitpunkt der Messung00:45:00 Uhr1027.60 hPa
Luftdruck (Minimum / Tiefstwert) und Zeitpunkt der Messung23:45:00 Uhr1020.40 hPa
Errechneter Absolutwert der Luftdruckschwankungen des Tages7.20 hPa
Höchste gemessene Windgeschwindigkeit und Uhrzeit der Messung10:45:00 Uhr6.48 km/h
Errechnete Windhäufigkeit in Relation zu den Messwerten des Tages27.08333 %
Niedrigste Windkühle (Windchill) und Zeitpunkt der Messung07:00:00 Uhr-5.30 °C
Taupunkt (Maximum / Höchstwert) und Uhrzeit der Messung14:00:00 Uhr4.00 °C
Taupunkt (Minimum / Tiefstwert) und Uhrzeit der Messung06:15:00-7.90 °C
Anzahl der automatisch eingelesenen Messwerte 96

Detaillierte Wetter- und Klima- Messwerte für den 16.02.2017 in Holzhau im Erzgebirge (630m ü.NN)
ZeitTemperaturLuftdruckRel. LuftfeuchteWindWindrichtungWindchillTaupunktNiederschlag l/m²
23:45:001.80 °C1020.40 hPa86.00 %-0.30 °C 
23:30:001.80 °C1020.40 hPa86.00 %-0.30 °C 
23:15:001.90 °C1020.60 hPa86.00 %-0.20 °C 
23:00:002.10 °C1020.60 hPa85.00 %-0.20 °C 
22:45:002.20 °C1021.00 hPa85.00 %-0.10 °C 
22:30:002.20 °C1021.10 hPa85.00 %-0.10 °C 
22:15:002.10 °C1021.40 hPa86.00 %0.00 °C 
22:00:002.10 °C1021.40 hPa85.00 %-0.20 °C 
21:45:001.90 °C1021.60 hPa85.00 %-0.30 °C 
21:30:001.80 °C1022.00 hPa85.00 %0.36 km/hOSO1.80 °C-0.40 °C 
21:15:001.80 °C1022.00 hPa86.00 %-0.30 °C 
21:00:001.40 °C1022.00 hPa85.00 %1.08 km/hO1.40 °C-0.80 °C 
20:45:001.30 °C1022.20 hPa84.00 %1.08 km/hOSO1.30 °C-1.10 °C 
20:30:001.40 °C1022.20 hPa83.00 %-1.20 °C 
20:15:001.70 °C1022.20 hPa83.00 %-0.90 °C 
20:00:001.80 °C1022.20 hPa83.00 %-0.80 °C 
19:45:001.80 °C1022.50 hPa83.00 %-0.80 °C 
19:30:001.90 °C1022.70 hPa83.00 %-0.70 °C 
19:15:001.80 °C1022.80 hPa82.00 %-0.90 °C 
19:00:001.90 °C1023.00 hPa81.00 %-1.00 °C 
18:45:002.10 °C1023.00 hPa81.00 %-0.80 °C 
18:30:002.20 °C1023.10 hPa80.00 %2.16 km/hSO2.20 °C-0.90 °C 
18:15:002.40 °C1023.30 hPa79.00 %1.08 km/hOSO2.40 °C-0.90 °C 
18:00:002.70 °C1023.50 hPa78.00 %0.36 km/hOSO2.70 °C-0.70 °C 
17:45:002.90 °C1023.40 hPa76.00 %-0.90 °C 
17:30:003.40 °C1023.40 hPa74.00 %-0.80 °C 
17:15:004.30 °C1023.30 hPa72.00 %-0.30 °C 
17:00:004.90 °C1023.60 hPa69.00 %1.08 km/hSO4.90 °C-0.30 °C 
16:45:006.20 °C1023.50 hPa66.00 %0.30 °C 
16:30:007.90 °C1023.60 hPa61.00 %1.08 km/hSO7.90 °C0.90 °C 
16:15:009.80 °C1023.70 hPa58.00 %1.90 °C 
16:00:0010.70 °C1023.80 hPa57.00 %2.50 °C 
15:45:0011.20 °C1024.10 hPa56.00 %2.80 °C 
15:30:0011.60 °C1024.20 hPa56.00 %3.10 °C 
15:15:0011.90 °C1024.30 hPa56.00 %3.40 °C 
15:00:0012.10 °C1024.30 hPa56.00 %3.60 °C 
14:45:0012.30 °C1024.30 hPa56.00 %2.88 km/hS12.30 °C3.80 °C 
14:30:0012.40 °C1024.50 hPa56.00 %6.12 km/hWNW12.20 °C3.90 °C 
14:15:0012.40 °C1024.70 hPa56.00 %3.90 °C 
14:00:0012.50 °C1024.90 hPa56.00 %6.12 km/hSSW12.30 °C4.00 °C 
13:45:0012.30 °C1024.90 hPa56.00 %3.80 °C 
13:30:0012.40 °C1025.10 hPa56.00 %1.80 km/hSSW12.40 °C3.90 °C 
13:15:0012.40 °C1025.30 hPa55.00 %6.12 km/hSW12.20 °C3.60 °C 
13:00:0012.40 °C1025.40 hPa55.00 %3.60 °C 
12:45:0012.50 °C1025.50 hPa55.00 %3.70 °C 
12:30:0012.10 °C1025.70 hPa57.00 %3.90 °C 
12:15:0010.90 °C1025.80 hPa58.00 %3.00 °C 
12:00:0010.90 °C1025.90 hPa57.00 %4.68 km/hSSW10.90 °C2.70 °C 
11:45:0010.90 °C1026.10 hPa58.00 %0.72 km/hWSW10.90 °C3.00 °C 
11:30:0010.90 °C1026.00 hPa58.00 %3.00 °C 
11:15:009.90 °C1026.10 hPa62.00 %3.00 °C 
11:00:008.90 °C1026.40 hPa64.00 %2.50 °C 
10:45:008.40 °C1026.50 hPa66.00 %6.48 km/hSSW7.50 °C2.40 °C 
10:30:007.40 °C1026.40 hPa71.00 %2.88 km/hSSW7.40 °C2.50 °C 
10:15:005.10 °C1026.50 hPa75.00 %1.00 °C 
10:00:002.90 °C1026.50 hPa77.00 %-0.70 °C 
09:45:001.60 °C1026.50 hPa80.00 %-1.50 °C 
09:30:000.10 °C1026.50 hPa82.00 %2.88 km/hSO0.10 °C-2.60 °C 
09:15:00-1.10 °C1026.50 hPa83.00 %3.24 km/hSO-1.10 °C-3.90 °C 
09:00:00-2.40 °C1026.50 hPa85.00 %0.36 km/hOSO-2.40 °C-4.80 °C 
08:45:00-3.60 °C1026.50 hPa86.00 %0.72 km/hOSO-3.60 °C-5.80 °C 
08:30:00-4.10 °C1026.60 hPa85.00 %-6.50 °C 
08:15:00-4.40 °C1026.50 hPa85.00 %1.08 km/hOSO-4.40 °C-6.80 °C 
08:00:00-4.60 °C1026.50 hPa85.00 %-7.00 °C 
07:45:00-4.90 °C1026.60 hPa86.00 %-7.10 °C 
07:30:00-5.10 °C1026.70 hPa86.00 %1.08 km/hOSO-5.10 °C-7.30 °C 
07:15:00-5.20 °C1026.70 hPa85.00 %-7.60 °C 
07:00:00-5.30 °C1026.70 hPa85.00 %-7.70 °C 
06:45:00-5.20 °C1026.90 hPa84.00 %-7.80 °C 
06:30:00-5.20 °C1026.70 hPa84.00 %-7.80 °C 
06:15:00-5.20 °C1026.70 hPa83.00 %-7.90 °C 
06:00:00-5.10 °C1026.70 hPa83.00 %-7.80 °C 
05:45:00-4.90 °C1026.80 hPa82.00 %-7.80 °C 
05:30:00-4.80 °C1026.70 hPa82.00 %-7.70 °C 
05:15:00-4.80 °C1026.60 hPa82.00 %-7.70 °C 
05:00:00-4.70 °C1026.70 hPa81.00 %-7.80 °C 
04:45:00-4.70 °C1026.60 hPa81.00 %-7.80 °C 
04:30:00-4.50 °C1026.60 hPa81.00 %-7.60 °C 
04:15:00-4.40 °C1026.60 hPa80.00 %-7.70 °C 
04:00:00-4.50 °C1026.60 hPa80.00 %-7.80 °C 
03:45:00-4.40 °C1026.60 hPa80.00 %-7.70 °C 
03:30:00-4.40 °C1026.70 hPa80.00 %-7.70 °C 
03:15:00-4.20 °C1026.80 hPa79.00 %-7.70 °C 
03:00:00-4.10 °C1026.90 hPa78.00 %-7.80 °C 
02:45:00-3.90 °C1027.00 hPa78.00 %1.08 km/hOSO-3.90 °C-7.60 °C 
02:30:00-3.80 °C1027.10 hPa78.00 %-7.50 °C 
02:15:00-3.70 °C1027.20 hPa78.00 %1.44 km/hOSO-3.70 °C-7.40 °C 
02:00:00-3.60 °C1027.30 hPa77.00 %-7.50 °C 
01:45:00-3.30 °C1027.10 hPa76.00 %-7.40 °C 
01:30:00-3.10 °C1027.10 hPa76.00 %-7.20 °C 
01:15:00-3.00 °C1027.30 hPa76.00 %-7.10 °C 
01:00:00-3.10 °C1027.50 hPa76.00 %1.08 km/hOSO-3.10 °C-7.20 °C 
00:45:00-3.10 °C1027.60 hPa75.00 %-7.40 °C 
00:30:00-2.70 °C1027.60 hPa74.00 %-7.20 °C 
00:15:00-2.50 °C1027.50 hPa75.00 %-6.80 °C 
00:00:00-2.70 °C1027.50 hPa75.00 %-7.00 °C 

Permanenter Link zu dieser Seite: Wetter im Erzgebirge am 16.02.2017
Performance-Info: Die Erstellung der Seite / Statistik(en) / Tabelle(n) erforderte 5 Datenbankserver-Abfrage(n) und dauerte 99 Millisekunden. (Dieser Messwert ist von der Gesamt-Auslastung des Servers abhängig.)
Erzgebirge - Wetter | Erzgebirge - Wetter (Mobilgeräte) | Komplette Klimadatenbank